sensor_id;sensor_type;location;lat;lon;timestamp;pressure;altitude;pressure_sealevel;temperature;humidity
21273;BME280;36726;52.328;10.552;2022-07-10T00:01:49;101318.31;;;14.63;75.50
21273;BME280;36726;52.328;10.552;2022-07-10T00:04:15;101318.31;;;14.63;75.21
21273;BME280;36726;52.328;10.552;2022-07-10T00:06:42;101320.09;;;14.64;74.95
21273;BME280;36726;52.328;10.552;2022-07-10T00:09:14;101319.22;;;14.64;75.26
21273;BME280;36726;52.328;10.552;2022-07-10T00:11:41;101305.91;;;14.64;74.91
21273;BME280;36726;52.328;10.552;2022-07-10T00:14:08;101308.56;;;14.64;75.75
21273;BME280;36726;52.328;10.552;2022-07-10T00:16:35;101318.31;;;14.65;75.54
21273;BME280;36726;52.328;10.552;2022-07-10T00:19:02;101310.31;;;14.65;75.50
21273;BME280;36726;52.328;10.552;2022-07-10T00:21:29;101312.09;;;14.64;75.75
21273;BME280;36726;52.328;10.552;2022-07-10T00:23:55;101307.66;;;14.65;75.96
21273;BME280;36726;52.328;10.552;2022-07-10T00:26:22;101314.78;;;14.66;75.83
21273;BME280;36726;52.328;10.552;2022-07-10T00:28:48;101300.59;;;14.65;75.77
21273;BME280;36726;52.328;10.552;2022-07-10T00:31:15;101314.75;;;14.64;75.97
21273;BME280;36726;52.328;10.552;2022-07-10T00:33:42;101308.56;;;14.62;75.79
21273;BME280;36726;52.328;10.552;2022-07-10T00:36:08;101320.06;;;14.61;75.81
21273;BME280;36726;52.328;10.552;2022-07-10T00:38:35;101314.72;;;14.58;76.32
21273;BME280;36726;52.328;10.552;2022-07-10T00:41:02;101312.06;;;14.57;76.14
21273;BME280;36726;52.328;10.552;2022-07-10T00:43:29;101305.81;;;14.56;76.05
21273;BME280;36726;52.328;10.552;2022-07-10T00:45:55;101304.03;;;14.55;75.92
21273;BME280;36726;52.328;10.552;2022-07-10T00:48:22;101309.34;;;14.55;75.82
21273;BME280;36726;52.328;10.552;2022-07-10T00:50:49;101305.81;;;14.56;76.29
21273;BME280;36726;52.328;10.552;2022-07-10T00:53:16;101312.00;;;14.55;76.62
21273;BME280;36726;52.328;10.552;2022-07-10T00:55:44;101311.09;;;14.50;77.23
21273;BME280;36726;52.328;10.552;2022-07-10T00:58:11;101316.38;;;14.44;78.38
21273;BME280;36726;52.328;10.552;2022-07-10T01:00:39;101318.97;;;14.35;81.25
21273;BME280;36726;52.328;10.552;2022-07-10T01:03:06;101319.59;;;14.16;85.00
21273;BME280;36726;52.328;10.552;2022-07-10T01:05:32;101303.44;;;13.98;86.12
21273;BME280;36726;52.328;10.552;2022-07-10T01:07:59;101311.31;;;13.87;86.45
21273;BME280;36726;52.328;10.552;2022-07-10T01:10:25;101311.28;;;13.84;86.58
21273;BME280;36726;52.328;10.552;2022-07-10T01:12:52;101312.16;;;13.85;87.00
21273;BME280;36726;52.328;10.552;2022-07-10T01:15:19;101320.13;;;13.83;88.67
21273;BME280;36726;52.328;10.552;2022-07-10T01:17:46;101312.97;;;13.76;90.49
21273;BME280;36726;52.328;10.552;2022-07-10T01:20:15;101311.09;;;13.68;93.22
21273;BME280;36726;52.328;10.552;2022-07-10T01:22:42;101315.41;;;13.60;95.53
21273;BME280;36726;52.328;10.552;2022-07-10T01:25:09;101313.50;;;13.46;98.04
21273;BME280;36726;52.328;10.552;2022-07-10T01:27:37;101312.47;;;13.37;100.00
21273;BME280;36726;52.328;10.552;2022-07-10T01:30:04;101311.47;;;13.29;100.00
21273;BME280;36726;52.328;10.552;2022-07-10T01:32:38;101303.47;;;13.26;100.00
21273;BME280;36726;52.328;10.552;2022-07-10T01:35:06;101300.75;;;13.21;100.00
21273;BME280;36726;52.328;10.552;2022-07-10T01:37:33;101306.88;;;13.17;100.00
21273;BME280;36726;52.328;10.552;2022-07-10T01:40:00;101298.84;;;13.14;100.00
21273;BME280;36726;52.328;10.552;2022-07-10T01:42:26;101288.19;;;13.11;100.00
21273;BME280;36726;52.328;10.552;2022-07-10T01:44:53;101281.03;;;13.04;100.00
21273;BME280;36726;52.328;10.552;2022-07-10T01:47:20;101284.47;;;13.00;100.00
21273;BME280;36726;52.328;10.552;2022-07-10T01:49:51;101279.13;;;12.97;100.00
21273;BME280;36726;52.328;10.552;2022-07-10T01:52:22;101286.16;;;12.95;100.00
21273;BME280;36726;52.328;10.552;2022-07-10T01:54:49;101276.38;;;12.93;100.00
21273;BME280;36726;52.328;10.552;2022-07-10T01:57:16;101282.59;;;12.93;100.00
21273;BME280;36726;52.328;10.552;2022-07-10T01:59:42;101281.75;;;12.96;100.00
21273;BME280;36726;52.328;10.552;2022-07-10T02:02:09;101274.66;;;12.96;100.00
21273;BME280;36726;52.328;10.552;2022-07-10T02:04:36;101279.94;;;12.95;100.00
21273;BME280;36726;52.328;10.552;2022-07-10T02:07:13;101275.53;;;12.95;100.00
21273;BME280;36726;52.328;10.552;2022-07-10T02:09:41;101279.13;;;12.97;100.00
21273;BME280;36726;52.328;10.552;2022-07-10T02:12:13;101277.38;;;12.99;100.00
21273;BME280;36726;52.328;10.552;2022-07-10T02:14:41;101264.13;;;13.01;100.00
21273;BME280;36726;52.328;10.552;2022-07-10T02:17:08;101262.31;;;13.00;100.00
21273;BME280;36726;52.328;10.552;2022-07-10T02:19:35;101266.75;;;12.99;100.00
21273;BME280;36726;52.328;10.552;2022-07-10T02:22:01;101270.25;;;12.98;100.00
21273;BME280;36726;52.328;10.552;2022-07-10T02:24:28;101271.19;;;13.00;100.00
21273;BME280;36726;52.328;10.552;2022-07-10T02:26:54;101268.53;;;13.00;100.00
21273;BME280;36726;52.328;10.552;2022-07-10T02:29:21;101264.19;;;13.04;100.00
21273;BME280;36726;52.328;10.552;2022-07-10T02:31:49;101260.66;;;13.03;100.00
21273;BME280;36726;52.328;10.552;2022-07-10T02:34:16;101262.44;;;13.06;100.00
21273;BME280;36726;52.328;10.552;2022-07-10T02:36:43;101260.69;;;13.05;100.00
21273;BME280;36726;52.328;10.552;2022-07-10T02:39:09;101257.16;;;13.07;100.00
21273;BME280;36726;52.328;10.552;2022-07-10T02:41:36;101252.75;;;13.09;100.00
21273;BME280;36726;52.328;10.552;2022-07-10T02:44:04;101250.06;;;13.08;100.00
21273;BME280;36726;52.328;10.552;2022-07-10T02:46:30;101242.09;;;13.06;100.00
21273;BME280;36726;52.328;10.552;2022-07-10T02:48:57;101248.31;;;13.08;99.62
21273;BME280;36726;52.328;10.552;2022-07-10T02:51:24;101251.84;;;13.09;99.09
21273;BME280;36726;52.328;10.552;2022-07-10T02:53:50;101250.13;;;13.11;98.44
21273;BME280;36726;52.328;10.552;2022-07-10T02:56:17;101243.94;;;13.12;98.29
21273;BME280;36726;52.328;10.552;2022-07-10T02:58:43;101251.09;;;13.16;98.22
21273;BME280;36726;52.328;10.552;2022-07-10T03:01:10;101242.25;;;13.20;98.02
21273;BME280;36726;52.328;10.552;2022-07-10T03:03:37;101244.97;;;13.23;96.90
21273;BME280;36726;52.328;10.552;2022-07-10T03:06:03;101245.91;;;13.25;96.31
21273;BME280;36726;52.328;10.552;2022-07-10T03:08:30;101246.81;;;13.28;96.25
21273;BME280;36726;52.328;10.552;2022-07-10T03:10:56;101246.84;;;13.30;95.52
21273;BME280;36726;52.328;10.552;2022-07-10T03:13:23;101245.97;;;13.32;95.10
21273;BME280;36726;52.328;10.552;2022-07-10T03:15:49;101249.53;;;13.34;95.12
21273;BME280;36726;52.328;10.552;2022-07-10T03:18:16;101238.00;;;13.32;94.44
21273;BME280;36726;52.328;10.552;2022-07-10T03:20:43;101238.88;;;13.31;94.51
21273;BME280;36726;52.328;10.552;2022-07-10T03:23:10;101238.88;;;13.31;93.81
21273;BME280;36726;52.328;10.552;2022-07-10T03:25:37;101252.16;;;13.30;94.63
21273;BME280;36726;52.328;10.552;2022-07-10T03:28:03;101246.81;;;13.28;95.41
21273;BME280;36726;52.328;10.552;2022-07-10T03:30:30;101248.56;;;13.28;95.60
21273;BME280;36726;52.328;10.552;2022-07-10T03:32:56;101253.00;;;13.27;95.89
21273;BME280;36726;52.328;10.552;2022-07-10T03:35:23;101249.44;;;13.27;96.28
21273;BME280;36726;52.328;10.552;2022-07-10T03:37:51;101245.91;;;13.26;96.75
21273;BME280;36726;52.328;10.552;2022-07-10T03:40:18;101254.72;;;13.24;97.10
21273;BME280;36726;52.328;10.552;2022-07-10T03:42:46;101255.50;;;13.17;97.71
21273;BME280;36726;52.328;10.552;2022-07-10T03:45:13;101258.06;;;13.09;99.07
21273;BME280;36726;52.328;10.552;2022-07-10T03:47:39;101253.56;;;13.04;99.80
21273;BME280;36726;52.328;10.552;2022-07-10T03:50:06;101255.25;;;13.00;100.00
21273;BME280;36726;52.328;10.552;2022-07-10T03:52:33;101256.13;;;12.99;100.00
21273;BME280;36726;52.328;10.552;2022-07-10T03:54:59;101260.56;;;13.00;99.82
21273;BME280;36726;52.328;10.552;2022-07-10T03:57:26;101256.19;;;13.02;100.00
21273;BME280;36726;52.328;10.552;2022-07-10T04:00:12;101258.94;;;13.08;100.00
21273;BME280;36726;52.328;10.552;2022-07-10T04:02:39;101252.72;;;13.08;100.00
21273;BME280;36726;52.328;10.552;2022-07-10T04:05:07;101242.13;;;13.09;100.00
21273;BME280;36726;52.328;10.552;2022-07-10T04:07:35;101251.03;;;13.13;99.76
21273;BME280;36726;52.328;10.552;2022-07-10T04:10:02;101240.47;;;13.16;99.77
21273;BME280;36726;52.328;10.552;2022-07-10T04:12:29;101241.34;;;13.18;99.38
21273;BME280;36726;52.328;10.552;2022-07-10T04:14:56;101236.09;;;13.22;99.28
21273;BME280;36726;52.328;10.552;2022-07-10T04:17:22;101235.22;;;13.23;98.65
21273;BME280;36726;52.328;10.552;2022-07-10T04:19:49;101236.16;;;13.27;98.53
21273;BME280;36726;52.328;10.552;2022-07-10T04:22:15;101231.75;;;13.27;98.72
21273;BME280;36726;52.328;10.552;2022-07-10T04:24:42;101229.13;;;13.30;98.45
21273;BME280;36726;52.328;10.552;2022-07-10T04:27:08;101228.25;;;13.31;98.37
21273;BME280;36726;52.328;10.552;2022-07-10T04:29:35;101237.13;;;13.33;97.87
21273;BME280;36726;52.328;10.552;2022-07-10T04:32:02;101230.03;;;13.32;97.37
21273;BME280;36726;52.328;10.552;2022-07-10T04:34:28;101238.06;;;13.35;97.33
21273;BME280;36726;52.328;10.552;2022-07-10T04:36:55;101238.09;;;13.40;97.33
21273;BME280;36726;52.328;10.552;2022-07-10T04:39:21;101241.69;;;13.45;97.37
21273;BME280;36726;52.328;10.552;2022-07-10T04:41:48;101246.19;;;13.50;97.35
21273;BME280;36726;52.328;10.552;2022-07-10T04:44:14;101244.44;;;13.52;96.95
21273;BME280;36726;52.328;10.552;2022-07-10T04:46:41;101245.34;;;13.53;95.94
21273;BME280;36726;52.328;10.552;2022-07-10T04:49:08;101249.81;;;13.56;96.23
21273;BME280;36726;52.328;10.552;2022-07-10T04:51:35;101245.38;;;13.57;95.85
21273;BME280;36726;52.328;10.552;2022-07-10T04:54:01;101249.88;;;13.62;95.64
21273;BME280;36726;52.328;10.552;2022-07-10T04:56:28;101259.66;;;13.64;95.43
21273;BME280;36726;52.328;10.552;2022-07-10T04:58:54;101254.38;;;13.69;95.58
21273;BME280;36726;52.328;10.552;2022-07-10T05:01:21;101254.44;;;13.72;95.43
21273;BME280;36726;52.328;10.552;2022-07-10T05:03:48;101260.66;;;13.74;95.09
21273;BME280;36726;52.328;10.552;2022-07-10T05:06:14;101253.56;;;13.76;95.14
21273;BME280;36726;52.328;10.552;2022-07-10T05:08:41;101259.84;;;13.79;94.57
21273;BME280;36726;52.328;10.552;2022-07-10T05:11:08;101258.94;;;13.80;94.91
21273;BME280;36726;52.328;10.552;2022-07-10T05:13:34;101253.63;;;13.82;94.63
21273;BME280;36726;52.328;10.552;2022-07-10T05:16:01;101257.22;;;13.84;94.20
21273;BME280;36726;52.328;10.552;2022-07-10T05:18:28;101254.56;;;13.85;94.17
21273;BME280;36726;52.328;10.552;2022-07-10T05:20:54;101248.38;;;13.88;93.87
21273;BME280;36726;52.328;10.552;2022-07-10T05:23:21;101260.78;;;13.89;93.81
21273;BME280;36726;52.328;10.552;2022-07-10T05:25:48;101255.50;;;13.90;93.85
21273;BME280;36726;52.328;10.552;2022-07-10T05:28:14;101249.31;;;13.93;93.38
21273;BME280;36726;52.328;10.552;2022-07-10T05:30:41;101253.75;;;13.94;92.92
21273;BME280;36726;52.328;10.552;2022-07-10T05:33:08;101247.59;;;13.98;92.96
21273;BME280;36726;52.328;10.552;2022-07-10T05:35:35;101243.25;;;14.06;92.33
21273;BME280;36726;52.328;10.552;2022-07-10T05:38:02;101246.84;;;14.14;92.13
21273;BME280;36726;52.328;10.552;2022-07-10T05:40:28;101245.16;;;14.19;92.00
21273;BME280;36726;52.328;10.552;2022-07-10T05:42:55;101252.31;;;14.26;92.11
21273;BME280;36726;52.328;10.552;2022-07-10T05:45:21;101244.38;;;14.32;91.82
21273;BME280;36726;52.328;10.552;2022-07-10T05:47:48;101252.38;;;14.32;90.05
21273;BME280;36726;52.328;10.552;2022-07-10T05:50:14;101246.19;;;14.31;89.56
21273;BME280;36726;52.328;10.552;2022-07-10T05:52:41;101258.66;;;14.37;89.42
21273;BME280;36726;52.328;10.552;2022-07-10T05:55:08;101248.00;;;14.38;89.06
21273;BME280;36726;52.328;10.552;2022-07-10T05:57:35;101256.91;;;14.40;88.58
21273;BME280;36726;52.328;10.552;2022-07-10T06:00:04;101256.00;;;14.40;89.28
21273;BME280;36726;52.328;10.552;2022-07-10T06:02:37;101256.00;;;14.37;88.05
21273;BME280;36726;52.328;10.552;2022-07-10T06:05:04;101255.16;;;14.44;87.83
21273;BME280;36726;52.328;10.552;2022-07-10T06:07:32;101256.97;;;14.49;87.65
21273;BME280;36726;52.328;10.552;2022-07-10T06:09:58;101250.81;;;14.58;87.45
21273;BME280;36726;52.328;10.552;2022-07-10T06:12:25;101257.13;;;14.69;86.80
21273;BME280;36726;52.328;10.552;2022-07-10T06:14:51;101257.19;;;14.83;86.33
21273;BME280;36726;52.328;10.552;2022-07-10T06:17:18;101246.59;;;14.89;84.87
21273;BME280;36726;52.328;10.552;2022-07-10T06:19:45;101247.56;;;15.01;84.22
21273;BME280;36726;52.328;10.552;2022-07-10T06:22:11;101251.13;;;15.09;83.56
21273;BME280;36726;52.328;10.552;2022-07-10T06:25:00;101249.41;;;15.22;83.76
21273;BME280;36726;52.328;10.552;2022-07-10T06:27:28;101259.25;;;15.30;82.79
21273;BME280;36726;52.328;10.552;2022-07-10T06:29:55;101259.25;;;15.36;81.35
21273;BME280;36726;52.328;10.552;2022-07-10T06:32:22;101266.44;;;15.40;80.00
21273;BME280;36726;52.328;10.552;2022-07-10T06:34:48;101256.66;;;15.45;78.96
21273;BME280;36726;52.328;10.552;2022-07-10T06:37:15;101254.94;;;15.56;79.42
21273;BME280;36726;52.328;10.552;2022-07-10T06:39:42;101255.84;;;15.62;79.05
21273;BME280;36726;52.328;10.552;2022-07-10T06:42:08;101251.44;;;15.67;78.81
21273;BME280;36726;52.328;10.552;2022-07-10T06:44:40;101255.88;;;15.66;77.69
21273;BME280;36726;52.328;10.552;2022-07-10T06:47:07;101251.47;;;15.76;78.11
21273;BME280;36726;52.328;10.552;2022-07-10T06:49:53;101245.25;;;15.81;77.43
21273;BME280;36726;52.328;10.552;2022-07-10T06:52:21;101247.91;;;15.84;76.36
21273;BME280;36726;52.328;10.552;2022-07-10T06:54:48;101247.94;;;15.92;76.36
21273;BME280;36726;52.328;10.552;2022-07-10T06:57:14;101251.50;;;15.97;75.86
21273;BME280;36726;52.328;10.552;2022-07-10T06:59:41;101249.72;;;15.99;75.83
21273;BME280;36726;52.328;10.552;2022-07-10T07:02:08;101251.50;;;16.00;75.83
21273;BME280;36726;52.328;10.552;2022-07-10T07:04:34;101256.88;;;16.12;75.51
21273;BME280;36726;52.328;10.552;2022-07-10T07:07:01;101253.31;;;16.28;76.03
21273;BME280;36726;52.328;10.552;2022-07-10T07:09:28;101250.63;;;16.34;74.36
21273;BME280;36726;52.328;10.552;2022-07-10T07:11:55;101247.09;;;16.33;73.56
21273;BME280;36726;52.328;10.552;2022-07-10T07:14:21;101252.44;;;16.45;73.74
21273;BME280;36726;52.328;10.552;2022-07-10T07:16:48;101246.22;;;16.51;72.29
21273;BME280;36726;52.328;10.552;2022-07-10T07:19:25;101249.78;;;16.53;72.48
21273;BME280;36726;52.328;10.552;2022-07-10T07:22:00;101247.09;;;16.45;72.65
21273;BME280;36726;52.328;10.552;2022-07-10T07:24:52;101251.53;;;16.42;72.60
21273;BME280;36726;52.328;10.552;2022-07-10T07:27:18;101261.38;;;16.53;72.21
21273;BME280;36726;52.328;10.552;2022-07-10T07:29:45;101259.56;;;16.65;70.97
21273;BME280;36726;52.328;10.552;2022-07-10T07:32:11;101238.19;;;16.86;70.52
21273;BME280;36726;52.328;10.552;2022-07-10T07:34:38;101243.47;;;16.92;69.61
21273;BME280;36726;52.328;10.552;2022-07-10T07:37:05;101248.81;;;16.92;70.12
21273;BME280;36726;52.328;10.552;2022-07-10T07:39:31;101254.16;;;17.01;70.31
21273;BME280;36726;52.328;10.552;2022-07-10T07:41:59;101244.34;;;17.03;69.40
21273;BME280;36726;52.328;10.552;2022-07-10T07:44:26;101245.25;;;17.05;69.76
21273;BME280;36726;52.328;10.552;2022-07-10T07:46:55;101244.38;;;17.01;68.06
21273;BME280;36726;52.328;10.552;2022-07-10T07:49:22;101239.91;;;17.02;68.25
21273;BME280;36726;52.328;10.552;2022-07-10T07:51:49;101246.19;;;16.93;67.22
21273;BME280;36726;52.328;10.552;2022-07-10T07:54:15;101259.53;;;16.93;66.30
21273;BME280;36726;52.328;10.552;2022-07-10T07:56:42;101245.28;;;17.00;66.06
21273;BME280;36726;52.328;10.552;2022-07-10T07:59:08;101246.16;;;16.99;66.44
21273;BME280;36726;52.328;10.552;2022-07-10T08:01:35;101237.28;;;16.90;66.71
21273;BME280;36726;52.328;10.552;2022-07-10T08:04:04;101236.38;;;16.77;66.58
21273;BME280;36726;52.328;10.552;2022-07-10T08:06:36;101247.09;;;16.65;65.54
21273;BME280;36726;52.328;10.552;2022-07-10T08:09:03;101256.91;;;16.57;66.10
21273;BME280;36726;52.328;10.552;2022-07-10T08:11:29;101241.78;;;16.53;66.89
21273;BME280;36726;52.328;10.552;2022-07-10T08:13:56;101248.00;;;16.64;65.24
21273;BME280;36726;52.328;10.552;2022-07-10T08:16:22;101247.06;;;16.77;64.68
21273;BME280;36726;52.328;10.552;2022-07-10T08:18:49;101239.06;;;16.80;64.31
21273;BME280;36726;52.328;10.552;2022-07-10T08:21:18;101240.88;;;16.66;64.65
21273;BME280;36726;52.328;10.552;2022-07-10T08:23:45;101248.88;;;16.62;65.43
21273;BME280;36726;52.328;10.552;2022-07-10T08:26:12;101237.34;;;16.55;66.04
21273;BME280;36726;52.328;10.552;2022-07-10T08:28:38;101239.09;;;16.65;65.95
21273;BME280;36726;52.328;10.552;2022-07-10T08:31:05;101218.59;;;16.81;65.95
21273;BME280;36726;52.328;10.552;2022-07-10T08:33:38;101219.44;;;16.95;65.14
21273;BME280;36726;52.328;10.552;2022-07-10T08:36:05;101214.88;;;17.25;65.20
21273;BME280;36726;52.328;10.552;2022-07-10T08:38:53;101212.94;;;17.64;62.26
21273;BME280;36726;52.328;10.552;2022-07-10T08:41:26;101223.53;;;17.82;58.91
21273;BME280;36726;52.328;10.552;2022-07-10T08:43:52;101206.44;;;18.01;59.23
21273;BME280;36726;52.328;10.552;2022-07-10T08:46:19;101209.97;;;18.09;60.04
21273;BME280;36726;52.328;10.552;2022-07-10T08:48:53;101201.84;;;18.19;58.69
21273;BME280;36726;52.328;10.552;2022-07-10T08:51:36;101218.84;;;18.11;58.39
21273;BME280;36726;52.328;10.552;2022-07-10T08:54:05;101219.03;;;17.88;57.10
21273;BME280;36726;52.328;10.552;2022-07-10T08:56:35;101218.22;;;17.76;58.80
21273;BME280;36726;52.328;10.552;2022-07-10T08:59:03;101215.56;;;17.73;58.97
21273;BME280;36726;52.328;10.552;2022-07-10T09:01:32;101214.63;;;17.80;58.08
21273;BME280;36726;52.328;10.552;2022-07-10T09:03:59;101207.38;;;18.00;58.77
21273;BME280;36726;52.328;10.552;2022-07-10T09:06:27;101214.31;;;18.25;59.01
21273;BME280;36726;52.328;10.552;2022-07-10T09:09:05;101215.16;;;18.30;58.09
21273;BME280;36726;52.328;10.552;2022-07-10T09:11:32;101230.31;;;18.34;57.33
21273;BME280;36726;52.328;10.552;2022-07-10T09:14:02;101232.09;;;18.29;57.03
21273;BME280;36726;52.328;10.552;2022-07-10T09:16:32;101225.09;;;18.16;57.43
21273;BME280;36726;52.328;10.552;2022-07-10T09:19:23;101223.28;;;18.19;57.11
21273;BME280;36726;52.328;10.552;2022-07-10T09:21:54;101209.03;;;18.16;56.86
21273;BME280;36726;52.328;10.552;2022-07-10T09:24:22;101210.81;;;18.15;55.59
21273;BME280;36726;52.328;10.552;2022-07-10T09:29:22;101205.53;;;18.06;57.00
21273;BME280;36726;52.328;10.552;2022-07-10T09:31:50;101206.34;;;18.14;55.28
21273;BME280;36726;52.328;10.552;2022-07-10T09:34:42;101192.72;;;18.44;54.06
21273;BME280;36726;52.328;10.552;2022-07-10T09:39:52;101207.06;;;18.34;55.01
21273;BME280;36726;52.328;10.552;2022-07-10T09:42:41;101203.50;;;18.35;55.55
21273;BME280;36726;52.328;10.552;2022-07-10T09:53:06;101194.84;;;18.00;55.96
21273;BME280;36726;52.328;10.552;2022-07-10T09:55:34;101193.91;;;18.09;54.88
21273;BME280;36726;52.328;10.552;2022-07-10T09:58:02;101184.72;;;18.37;54.92
21273;BME280;36726;52.328;10.552;2022-07-10T10:05:37;101178.03;;;18.82;50.20
21273;BME280;36726;52.328;10.552;2022-07-10T10:08:22;101176.53;;;18.56;50.63
21273;BME280;36726;52.328;10.552;2022-07-10T10:10:51;101181.00;;;18.56;52.25
21273;BME280;36726;52.328;10.552;2022-07-10T10:13:23;101187.72;;;18.95;53.11
21273;BME280;36726;52.328;10.552;2022-07-10T10:15:51;101168.47;;;19.35;52.01
21273;BME280;36726;52.328;10.552;2022-07-10T10:18:20;101167.44;;;19.45;50.91
21273;BME280;36726;52.328;10.552;2022-07-10T10:20:47;101168.50;;;19.32;50.18
21273;BME280;36726;52.328;10.552;2022-07-10T10:23:19;101182.19;;;19.08;50.91
21273;BME280;36726;52.328;10.552;2022-07-10T10:25:50;101177.94;;;18.94;52.04
21273;BME280;36726;52.328;10.552;2022-07-10T10:28:19;101184.16;;;18.94;51.86
21273;BME280;36726;52.328;10.552;2022-07-10T10:30:54;101159.72;;;19.20;51.10
21273;BME280;36726;52.328;10.552;2022-07-10T10:36:10;101173.19;;;19.79;48.09
21273;BME280;36726;52.328;10.552;2022-07-10T10:41:37;101181.03;;;19.94;48.71
21273;BME280;36726;52.328;10.552;2022-07-10T10:46:57;101183.25;;;19.65;50.69
21273;BME280;36726;52.328;10.552;2022-07-10T10:49:48;101189.94;;;19.35;50.41
21273;BME280;36726;52.328;10.552;2022-07-10T10:52:16;101193.81;;;19.09;50.92
21273;BME280;36726;52.328;10.552;2022-07-10T10:57:42;101173.25;;;19.09;51.78
21273;BME280;36726;52.328;10.552;2022-07-10T11:00:32;101178.63;;;19.09;50.12
21273;BME280;36726;52.328;10.552;2022-07-10T11:03:14;101182.06;;;19.17;50.64
21273;BME280;36726;52.328;10.552;2022-07-10T11:05:43;101159.63;;;19.27;50.70
21273;BME280;36726;52.328;10.552;2022-07-10T11:11:39;101176.38;;;19.44;47.78
21273;BME280;36726;52.328;10.552;2022-07-10T11:14:07;101179.19;;;19.98;46.90
21273;BME280;36726;52.328;10.552;2022-07-10T11:16:35;101163.66;;;20.15;44.73
21273;BME280;36726;52.328;10.552;2022-07-10T11:19:08;101185.19;;;20.13;45.56
21273;BME280;36726;52.328;10.552;2022-07-10T11:21:45;101175.50;;;20.05;46.40
21273;BME280;36726;52.328;10.552;2022-07-10T11:24:45;101184.50;;;20.01;46.61
21273;BME280;36726;52.328;10.552;2022-07-10T11:30:18;101156.19;;;20.35;47.66
21273;BME280;36726;52.328;10.552;2022-07-10T11:32:44;101171.28;;;20.42;46.78
21273;BME280;36726;52.328;10.552;2022-07-10T11:35:12;101165.09;;;20.40;47.53
21273;BME280;36726;52.328;10.552;2022-07-10T11:37:52;101174.16;;;20.31;47.71
21273;BME280;36726;52.328;10.552;2022-07-10T11:40:19;101176.53;;;19.96;47.50
21273;BME280;36726;52.328;10.552;2022-07-10T11:42:51;101175.06;;;19.74;47.71
21273;BME280;36726;52.328;10.552;2022-07-10T11:45:27;101156.38;;;19.68;48.28
21273;BME280;36726;52.328;10.552;2022-07-10T11:47:55;101161.69;;;19.73;48.08
21273;BME280;36726;52.328;10.552;2022-07-10T11:50:23;101162.31;;;19.88;47.59
21273;BME280;36726;52.328;10.552;2022-07-10T11:52:50;101153.66;;;20.26;46.18
21273;BME280;36726;52.328;10.552;2022-07-10T11:55:19;101152.97;;;20.65;45.17
21273;BME280;36726;52.328;10.552;2022-07-10T11:57:46;101144.22;;;21.01;44.10
21273;BME280;36726;52.328;10.552;2022-07-10T12:02:51;101175.84;;;21.31;42.60
21273;BME280;36726;52.328;10.552;2022-07-10T12:05:35;101163.47;;;21.23;43.82
21273;BME280;36726;52.328;10.552;2022-07-10T12:08:02;101154.88;;;21.45;43.96
21273;BME280;36726;52.328;10.552;2022-07-10T12:10:31;101158.78;;;21.31;43.02
21273;BME280;36726;52.328;10.552;2022-07-10T12:13:05;101154.38;;;21.27;44.71
21273;BME280;36726;52.328;10.552;2022-07-10T12:15:36;101156.72;;;21.43;44.53
21273;BME280;36726;52.328;10.552;2022-07-10T12:18:09;101153.66;;;21.60;43.80
21273;BME280;36726;52.328;10.552;2022-07-10T12:20:41;101154.81;;;21.48;42.62
21273;BME280;36726;52.328;10.552;2022-07-10T12:23:11;101162.19;;;21.40;43.34
21273;BME280;36726;52.328;10.552;2022-07-10T12:25:43;101169.69;;;21.26;42.48
21273;BME280;36726;52.328;10.552;2022-07-10T12:28:10;101162.66;;;21.19;43.59
21273;BME280;36726;52.328;10.552;2022-07-10T12:30:42;101168.00;;;21.21;44.26
21273;BME280;36726;52.328;10.552;2022-07-10T12:33:15;101178.31;;;20.96;43.42
21273;BME280;36726;52.328;10.552;2022-07-10T12:35:55;101176.34;;;21.07;43.65
21273;BME280;36726;52.328;10.552;2022-07-10T12:38:26;101175.44;;;21.08;44.15
21273;BME280;36726;52.328;10.552;2022-07-10T12:41:09;101167.00;;;21.25;44.73
21273;BME280;36726;52.328;10.552;2022-07-10T12:43:37;101165.78;;;21.39;44.63
21273;BME280;36726;52.328;10.552;2022-07-10T12:46:21;101159.72;;;21.30;44.39
21273;BME280;36726;52.328;10.552;2022-07-10T12:49:07;101165.72;;;21.00;44.09
21273;BME280;36726;52.328;10.552;2022-07-10T12:51:45;101165.88;;;20.92;44.71
21273;BME280;36726;52.328;10.552;2022-07-10T12:54:36;101155.19;;;20.88;44.01
21273;BME280;36726;52.328;10.552;2022-07-10T12:57:06;101180.03;;;21.02;44.06
21273;BME280;36726;52.328;10.552;2022-07-10T12:59:35;101176.59;;;21.38;43.76
21273;BME280;36726;52.328;10.552;2022-07-10T13:02:16;101175.72;;;21.76;44.10
21273;BME280;36726;52.328;10.552;2022-07-10T13:04:54;101167.53;;;21.82;43.95
21273;BME280;36726;52.328;10.552;2022-07-10T13:07:31;101177.78;;;21.64;43.86
21273;BME280;36726;52.328;10.552;2022-07-10T13:10:02;101198.06;;;21.39;44.09
21273;BME280;36726;52.328;10.552;2022-07-10T13:12:31;101174.91;;;21.32;44.09
21273;BME280;36726;52.328;10.552;2022-07-10T13:14:59;101178.75;;;21.62;44.02
21273;BME280;36726;52.328;10.552;2022-07-10T13:17:26;101182.94;;;21.74;43.80
21273;BME280;36726;52.328;10.552;2022-07-10T13:19:52;101180.06;;;21.84;43.63
21273;BME280;36726;52.328;10.552;2022-07-10T13:22:19;101185.44;;;21.84;43.43
21273;BME280;36726;52.328;10.552;2022-07-10T13:24:45;101176.34;;;21.90;43.45
21273;BME280;36726;52.328;10.552;2022-07-10T13:27:12;101174.88;;;21.74;43.97